πŸ“Š DonnΓ©es MΓ©tΓ©o - Bordeaux

Total mesures

14,389

TempΓ©rature moyenne

18.9Β°C

Temp. Min/Max

2.9Β° / 42.4Β°

HumiditΓ© moyenne

64.8%

Pression moyenne

1014.7 hPa
enregistrements
ID Date/Heure Temp (Β°C) HumiditΓ© (%) Pression (hPa) Tendance LuminositΓ© (lux) Situation
12089 28/07/2026 14:15 34.8 24.0 1,013.6 β†’ Stable 94,728 chaleur-seche
12088 28/07/2026 13:45 34.2 26.0 1,014.0 β†’ Stable 99,168 chaleur-seche
12087 28/07/2026 13:15 33.5 28.0 1,014.2 β†’ Stable 102,408 chaleur-seche
12086 28/07/2026 12:45 32.8 30.0 1,014.8 β†’ Stable 104,352 chaleur-seche
12085 28/07/2026 12:15 32.2 31.0 1,014.8 β†’ Stable 104,904 chaleur-seche
12084 28/07/2026 11:45 31.4 33.0 1,015.0 β†’ Stable 104,256 chaleur-seche
12083 28/07/2026 11:15 30.8 34.0 1,015.0 β†’ Stable 102,132 chaleur-seche
12082 28/07/2026 10:45 30.2 34.0 1,015.5 β†’ Stable 98,796 chaleur-seche
12081 28/07/2026 10:15 29.6 35.0 1,015.5 β†’ Stable 94,260 conditions-neutrales-ou-non-definies
12080 28/07/2026 09:45 28.5 39.0 1,015.5 β†’ Stable 88,524 confortablement-chaud (approx.)
12079 28/07/2026 09:15 27.0 44.0 1,015.5 β†’ Stable 80,460 confortablement-chaud
12078 28/07/2026 08:45 25.6 49.0 1,015.8 β†’ Stable 72,504 confortablement-chaud
12077 28/07/2026 08:15 24.1 53.0 1,015.8 β†’ Stable 61,200 confortablement-chaud (approx.)
12076 28/07/2026 07:45 23.1 55.0 1,016.1 β†’ Stable 51,948 conditions-neutrales-ou-non-definies
12075 28/07/2026 07:15 21.7 59.0 1,016.1 β†’ Stable 39,072 frais-stable
12074 28/07/2026 06:45 20.7 63.0 1,016.1 β†’ Stable 29,904 frais-stable
12073 28/07/2026 06:15 18.6 74.0 1,016.1 β†’ Stable 17,412 pluvieux-gris (approx.)
12072 28/07/2026 05:45 17.4 81.0 1,016.1 β†’ Stable 9,996 pluvieux-gris (approx.)
12071 28/07/2026 05:15 17.0 82.0 1,016.1 β†’ Stable 744 pluvieux-gris (approx.)
12070 28/07/2026 04:45 17.0 81.0 1,016.2 β†’ Stable 0 pluvieux-gris (approx.)
12069 28/07/2026 04:15 17.3 81.0 1,016.2 β†’ Stable 0 pluvieux-gris (approx.)
12068 28/07/2026 03:45 17.6 79.0 1,016.7 β†’ Stable 0 pluvieux-gris (approx.)
12067 28/07/2026 03:15 17.9 79.0 1,016.7 β†’ Stable 0 pluvieux-gris (approx.)
12066 28/07/2026 02:45 18.1 77.0 1,016.9 β†’ Stable 0 pluvieux-gris (approx.)
12065 28/07/2026 02:15 18.5 76.0 1,016.9 β†’ Stable 0 pluvieux-gris (approx.)
12064 28/07/2026 01:45 18.6 75.0 1,017.3 β†’ Stable 0 pluvieux-gris (approx.)
12063 28/07/2026 01:15 18.9 75.0 1,017.3 β†’ Stable 0 pluvieux-gris (approx.)
12062 28/07/2026 00:45 19.2 75.0 1,017.5 β†’ Stable 0 pluvieux-gris (approx.)
12061 28/07/2026 00:15 19.2 77.0 1,017.5 β†’ Stable 0 pluvieux-gris (approx.)
12060 27/07/2026 23:45 19.4 77.0 1,017.9 β†’ Stable 0 pluvieux-gris (approx.)
12059 27/07/2026 23:15 19.8 73.0 1,017.9 β†’ Stable 0 pluvieux-gris (approx.)
12058 27/07/2026 22:45 20.1 70.0 1,018.0 β†’ Stable 0 pluvieux-gris (approx.)
12057 27/07/2026 22:15 20.5 68.0 1,018.0 β†’ Stable 0 frais-stable
12056 27/07/2026 21:45 21.0 65.0 1,017.8 β†’ Stable 0 frais-stable
12055 27/07/2026 21:15 21.7 62.0 1,017.8 β†’ Stable 0 frais-stable
12054 27/07/2026 20:45 22.1 60.0 1,017.5 β†’ Stable 0 frais-stable
12053 27/07/2026 20:15 23.3 56.0 1,017.5 β†’ Stable 0 conditions-neutrales-ou-non-definies
12052 27/07/2026 19:45 24.1 53.0 1,017.0 β†’ Stable 0 confortablement-chaud (approx.)
12051 27/07/2026 19:15 25.7 48.0 1,017.0 β†’ Stable 4,812 confortablement-chaud (approx.)
12050 27/07/2026 18:45 27.2 41.0 1,016.9 β†’ Stable 12,312 confortablement-chaud (approx.)
12049 27/07/2026 18:15 27.8 37.0 1,016.9 β†’ Stable 22,872 conditions-neutrales-ou-non-definies
12048 27/07/2026 17:45 28.1 37.0 1,017.0 β†’ Stable 32,496 conditions-neutrales-ou-non-definies
12047 27/07/2026 16:45 28.7 38.0 1,017.2 β†’ Stable 54,072 conditions-neutrales-ou-non-definies
12046 27/07/2026 16:15 28.6 35.0 1,017.2 β†’ Stable 65,376 conditions-neutrales-ou-non-definies
12045 27/07/2026 15:45 28.5 35.0 1,017.5 β†’ Stable 74,448 confortablement-chaud (approx.)
12044 27/07/2026 15:15 28.6 36.0 1,017.5 β†’ Stable 82,404 confortablement-chaud (approx.)
12043 27/07/2026 14:45 28.4 36.0 1,017.9 β†’ Stable 89,256 confortablement-chaud (approx.)
12042 27/07/2026 14:15 28.0 38.0 1,017.9 β†’ Stable 94,908 confortablement-chaud (approx.)
12041 27/07/2026 13:45 27.5 40.0 1,018.3 β†’ Stable 99,348 confortablement-chaud
12040 27/07/2026 13:15 26.8 43.0 1,018.4 β†’ Stable 100,368 confortablement-chaud
12039 27/07/2026 12:45 26.2 45.0 1,018.9 β†’ Stable 101,664 confortablement-chaud
12038 27/07/2026 12:15 25.7 47.0 1,018.9 β†’ Stable 91,764 confortablement-chaud
12037 27/07/2026 11:45 25.1 49.0 1,019.0 β†’ Stable 88,704 confortablement-chaud
12036 27/07/2026 11:15 24.8 48.0 1,019.2 β†’ Stable 92,496 confortablement-chaud
12035 27/07/2026 10:45 24.2 50.0 1,019.1 β†’ Stable 88,428 confortablement-chaud
12034 27/07/2026 10:15 23.7 50.0 1,019.1 β†’ Stable 82,680 confortablement-chaud (approx.)
12033 27/07/2026 09:45 23.4 50.0 1,018.9 β†’ Stable 77,868 confortablement-chaud (approx.)
12032 27/07/2026 09:15 22.4 55.0 1,018.9 β†’ Stable 64,356 frais-stable
12031 27/07/2026 08:45 22.1 57.0 1,018.8 β†’ Stable 59,904 frais-stable
12030 27/07/2026 08:15 21.7 59.0 1,018.8 β†’ Stable 55,560 frais-stable
12029 27/07/2026 07:45 21.0 64.0 1,018.4 β†’ Stable 50,004 frais-stable
12028 27/07/2026 07:15 20.4 67.0 1,018.4 β†’ Stable 38,052 frais-stable
12027 27/07/2026 06:45 19.9 70.0 1,018.1 β†’ Stable 29,256 pluvieux-gris (approx.)
12026 27/07/2026 06:15 19.4 78.0 1,018.1 β†’ Stable 15,180 pluvieux-gris (approx.)
12025 27/07/2026 05:45 19.1 81.0 1,017.6 β†’ Stable 8,616 pluvieux-gris (approx.)
12024 27/07/2026 05:15 19.5 82.0 1,017.6 β†’ Stable 552 pluvieux-gris (approx.)
12023 27/07/2026 04:45 19.5 85.0 1,017.3 β†’ Stable 0 pluvieux-gris (approx.)
12022 27/07/2026 04:15 19.7 82.0 1,017.3 β†’ Stable 0 pluvieux-gris (approx.)
12021 27/07/2026 03:45 19.6 86.0 1,017.1 β†’ Stable 0 pluvieux-gris (approx.)
12020 27/07/2026 03:15 19.9 85.0 1,017.1 β†’ Stable 0 pluvieux-gris (approx.)
12019 27/07/2026 02:45 19.9 86.0 1,017.0 β†’ Stable 0 pluvieux-gris (approx.)
12018 27/07/2026 02:15 20.2 87.0 1,017.0 β†’ Stable 0 pluvieux-gris (approx.)
12017 27/07/2026 01:45 20.2 88.0 1,016.9 β†’ Stable 0 pluvieux-gris (approx.)
12016 27/07/2026 01:15 20.7 87.0 1,016.9 β†’ Stable 0 pluvieux-gris (approx.)
12015 27/07/2026 00:45 20.7 88.0 1,016.7 β†’ Stable 0 pluvieux-gris (approx.)
12014 27/07/2026 00:15 20.9 86.0 1,016.7 β†’ Stable 0 pluvieux-gris (approx.)
12013 26/07/2026 23:45 21.2 87.0 1,016.4 β†’ Stable 0 pluvieux-gris (approx.)
12012 26/07/2026 23:15 21.3 85.0 1,016.4 β†’ Stable 0 pluvieux-gris (approx.)
12011 26/07/2026 22:45 21.1 86.0 1,016.6 β†’ Stable 0 pluvieux-gris (approx.)
12010 26/07/2026 22:15 21.4 87.0 1,016.6 β†’ Stable 0 pluvieux-gris (approx.)
12009 26/07/2026 21:45 21.3 87.0 1,016.2 β†’ Stable 0 pluvieux-gris (approx.)
12008 26/07/2026 21:15 21.4 84.0 1,016.2 β†’ Stable 0 pluvieux-gris (approx.)
12007 26/07/2026 20:45 21.6 81.0 1,016.0 β†’ Stable 0 pluvieux-gris (approx.)
12006 26/07/2026 20:15 21.7 77.0 1,016.0 β†’ Stable 0 pluvieux-gris (approx.)
12005 26/07/2026 19:45 21.9 75.0 1,016.0 β†’ Stable 0 pluvieux-gris (approx.)
12004 26/07/2026 19:15 22.5 69.0 1,016.0 β†’ Stable 4,356 frais-stable
12003 26/07/2026 18:45 22.6 68.0 1,015.9 β†’ Stable 11,292 frais-stable
12002 26/07/2026 18:15 22.8 67.0 1,015.9 β†’ Stable 13,332 frais-stable
12001 26/07/2026 17:45 22.9 65.0 1,016.2 β†’ Stable 19,164 frais-stable
12000 26/07/2026 17:15 23.7 57.0 1,016.2 β†’ Stable 24,168 conditions-neutrales-ou-non-definies
11999 26/07/2026 16:45 23.9 54.0 1,016.0 β†’ Stable 30,924 conditions-neutrales-ou-non-definies
11998 26/07/2026 16:15 24.4 51.0 1,016.0 β†’ Stable 36,108 confortablement-chaud (approx.)
11997 26/07/2026 15:45 24.7 51.0 1,015.1 β†’ Stable 43,704 confortablement-chaud (approx.)
11996 26/07/2026 15:15 25.8 48.0 1,015.1 β†’ Stable 67,968 confortablement-chaud (approx.)
11995 26/07/2026 14:45 26.6 41.0 1,015.0 β†’ Stable 84,624 confortablement-chaud
11994 26/07/2026 14:15 26.9 37.0 1,015.0 β†’ Stable 92,220 confortablement-chaud (approx.)
11993 26/07/2026 13:45 26.8 39.0 1,015.0 β†’ Stable 96,948 confortablement-chaud (approx.)
11992 26/07/2026 13:15 26.9 38.0 1,015.0 β†’ Stable 101,940 confortablement-chaud (approx.)
11991 26/07/2026 12:45 26.8 38.0 1,014.9 β†’ Stable 104,628 confortablement-chaud (approx.)
11990 26/07/2026 12:15 26.5 39.0 1,014.9 β†’ Stable 100,560 confortablement-chaud (approx.)